createdAt,value
2019-05-23T00:01:13.175Z,86.74
2019-05-23T00:03:52.217Z,86.76
2019-05-23T00:06:24.290Z,86.65
2019-05-23T00:08:50.067Z,86.59
2019-05-23T00:11:04.361Z,86.57
2019-05-23T00:13:30.751Z,86.49
2019-05-23T00:15:40.098Z,86.40
2019-05-23T00:17:46.561Z,86.40
2019-05-23T00:19:53.291Z,86.43
2019-05-23T00:22:00.926Z,86.39
2019-05-23T00:24:08.232Z,86.33
2019-05-23T00:26:16.815Z,86.23
2019-05-23T00:28:23.375Z,86.23
2019-05-23T00:30:31.962Z,86.07
2019-05-23T00:32:43.145Z,86.02
2019-05-23T00:34:51.581Z,85.93
2019-05-23T00:36:59.934Z,85.83
2019-05-23T00:39:09.865Z,85.80
2019-05-23T00:41:17.463Z,85.78
2019-05-23T00:43:24.955Z,85.69
2019-05-23T00:45:33.415Z,85.61
2019-05-23T00:47:40.528Z,85.49
2019-05-23T00:49:47.283Z,85.44
2019-05-23T00:51:53.792Z,85.45
2019-05-23T00:54:01.529Z,85.63
2019-05-23T00:56:09.719Z,85.65
2019-05-23T00:58:18.227Z,85.59
2019-05-23T01:00:25.489Z,85.67
2019-05-23T01:02:34.035Z,85.67
2019-05-23T01:04:42.351Z,85.72
2019-05-23T01:06:49.762Z,85.72
2019-05-23T01:08:57.328Z,85.69
2019-05-23T01:11:04.065Z,85.78
2019-05-23T01:13:11.450Z,85.71
2019-05-23T01:15:21.028Z,85.94
2019-05-23T01:17:30.721Z,86.05
2019-05-23T01:19:37.444Z,86.17
2019-05-23T01:22:03.848Z,86.18
2019-05-23T01:24:27.997Z,86.22
2019-05-23T01:26:35.770Z,86.17
2019-05-23T01:28:42.926Z,86.17
2019-05-23T01:30:52.077Z,86.07
2019-05-23T01:33:00.438Z,86.06
2019-05-23T01:35:09.991Z,85.98
2019-05-23T01:37:19.136Z,85.98
2019-05-23T01:39:25.990Z,86.07
2019-05-23T01:41:32.912Z,85.95
2019-05-23T01:43:40.016Z,86.07
2019-05-23T01:45:47.663Z,86.08
2019-05-23T01:47:54.156Z,86.14
2019-05-23T01:50:01.536Z,86.29
2019-05-23T01:52:09.113Z,86.27
2019-05-23T01:54:16.123Z,86.25
2019-05-23T01:56:22.543Z,86.24
2019-05-23T01:58:29.135Z,86.28
2019-05-23T02:00:35.858Z,86.34
2019-05-23T02:02:42.960Z,86.43
2019-05-23T02:04:51.262Z,86.47
2019-05-23T02:06:57.812Z,86.57
2019-05-23T02:09:06.465Z,86.69
2019-05-23T02:11:13.292Z,86.77
2019-05-23T02:13:21.411Z,86.95
2019-05-23T02:15:28.622Z,86.98
2019-05-23T02:17:37.267Z,87.06
2019-05-23T02:19:43.777Z,87.09
2019-05-23T02:21:50.350Z,87.18
2019-05-23T02:23:57.192Z,87.20
2019-05-23T02:26:05.029Z,87.34
2019-05-23T02:28:12.697Z,87.31
2019-05-23T02:30:33.804Z,87.47
2019-05-23T02:32:31.164Z,87.45
2019-05-23T02:34:38.675Z,87.48
2019-05-23T02:36:46.380Z,87.54
2019-05-23T02:38:52.597Z,87.47
2019-05-23T02:41:05.365Z,87.40
2019-05-23T02:43:26.632Z,87.38
2019-05-23T02:45:47.606Z,87.16
2019-05-23T02:47:54.543Z,87.08
2019-05-23T02:50:02.470Z,86.96
2019-05-23T02:52:28.816Z,86.75
2019-05-23T02:54:37.393Z,86.59
2019-05-23T02:56:46.173Z,86.24
2019-05-23T02:59:22.230Z,86.18
2019-05-23T03:01:34.913Z,85.89
2019-05-23T03:03:45.859Z,85.79
2019-05-23T03:05:53.559Z,85.55
2019-05-23T03:08:01.170Z,85.30
2019-05-23T03:10:09.807Z,85.26
2019-05-23T03:12:17.752Z,85.12
2019-05-23T03:14:26.135Z,84.95
2019-05-23T03:16:36.202Z,84.98
2019-05-23T03:18:47.005Z,84.75
2019-05-23T03:20:55.059Z,85.21
2019-05-23T03:23:08.910Z,84.96
2019-05-23T03:25:39.460Z,84.78
2019-05-23T03:27:48.721Z,84.19
2019-05-23T03:29:56.514Z,83.86
2019-05-23T03:32:05.315Z,83.74
2019-05-23T03:34:12.860Z,83.90
2019-05-23T03:36:19.809Z,83.87
2019-05-23T03:38:27.080Z,83.58
2019-05-23T03:40:35.445Z,82.88
2019-05-23T03:42:42.531Z,82.88
2019-05-23T03:44:51.548Z,82.49
2019-05-23T03:47:02.293Z,82.26
2019-05-23T03:49:10.681Z,81.94
2019-05-23T03:51:17.576Z,81.68
2019-05-23T03:53:26.996Z,81.57
2019-05-23T03:55:33.395Z,81.64
2019-05-23T03:57:40.365Z,81.57
2019-05-23T03:59:46.773Z,81.40
2019-05-23T04:01:55.183Z,81.37
2019-05-23T04:04:03.421Z,81.18
2019-05-23T04:06:10.258Z,81.05
2019-05-23T04:08:17.694Z,81.01
2019-05-23T04:10:25.555Z,81.04
2019-05-23T04:12:32.882Z,80.91
2019-05-23T04:14:39.893Z,80.81
2019-05-23T04:16:47.417Z,80.69
2019-05-23T04:18:53.917Z,80.57
2019-05-23T04:21:00.552Z,80.46
2019-05-23T04:23:09.172Z,80.20
2019-05-23T04:25:16.597Z,80.34
2019-05-23T04:27:23.154Z,80.08
2019-05-23T04:29:30.627Z,80.04
2019-05-23T04:31:37.441Z,79.71
2019-05-23T04:33:43.989Z,79.29
2019-05-23T04:35:50.748Z,79.04
2019-05-23T04:37:57.927Z,78.90
2019-05-23T04:40:09.158Z,78.72
2019-05-23T04:42:15.855Z,78.56
2019-05-23T04:44:22.337Z,78.60
2019-05-23T04:46:29.232Z,78.23
2019-05-23T04:48:35.911Z,78.22
2019-05-23T04:50:43.026Z,77.98
2019-05-23T04:52:49.484Z,77.76
2019-05-23T04:54:59.186Z,77.61
2019-05-23T04:57:06.468Z,77.49
2019-05-23T04:59:13.807Z,77.41
2019-05-23T05:01:23.834Z,77.19
2019-05-23T05:03:32.093Z,76.71
2019-05-23T05:05:40.583Z,76.58
2019-05-23T05:07:47.779Z,76.10
2019-05-23T05:09:54.151Z,75.69
2019-05-23T05:12:02.899Z,75.59
2019-05-23T05:14:09.714Z,75.22
2019-05-23T05:16:16.601Z,74.75
2019-05-23T05:18:23.781Z,74.23
2019-05-23T05:20:33.391Z,74.26
2019-05-23T05:22:39.820Z,74.09
2019-05-23T05:24:46.565Z,73.53
2019-05-23T05:26:53.498Z,73.41
2019-05-23T05:29:00.524Z,72.92
2019-05-23T05:31:07.600Z,72.09
2019-05-23T05:33:14.212Z,71.68
2019-05-23T05:35:20.577Z,71.51
2019-05-23T05:37:27.035Z,71.31
2019-05-23T05:39:35.534Z,70.89
2019-05-23T05:41:42.443Z,70.77
2019-05-23T05:43:49.197Z,70.32
2019-05-23T05:45:56.617Z,70.37
2019-05-23T05:48:04.215Z,70.42
2019-05-23T05:50:14.551Z,70.39
2019-05-23T05:52:21.453Z,70.35
2019-05-23T05:54:28.106Z,69.98
2019-05-23T05:56:34.957Z,69.31
2019-05-23T05:58:41.374Z,68.89
2019-05-23T06:00:47.654Z,68.12
2019-05-23T06:03:04.362Z,67.27
2019-05-23T06:05:04.062Z,66.79
2019-05-23T06:07:22.742Z,66.11
2019-05-23T06:09:30.425Z,64.87
2019-05-23T06:11:36.878Z,63.94
2019-05-23T06:13:43.843Z,62.87
2019-05-23T06:15:53.106Z,61.19
2019-05-23T06:18:00.267Z,58.76
2019-05-23T06:20:09.026Z,57.41
2019-05-23T06:22:15.434Z,55.59
2019-05-23T06:24:39.371Z,53.98
2019-05-23T06:26:30.165Z,53.08
2019-05-23T06:28:37.563Z,51.59
2019-05-23T06:30:44.704Z,50.36
2019-05-23T06:32:51.405Z,49.02
2019-05-23T06:34:58.506Z,47.71
2019-05-23T06:37:06.703Z,44.73
2019-05-23T06:39:16.768Z,42.57
2019-05-23T06:41:22.790Z,42.22
2019-05-23T06:43:30.557Z,41.21
2019-05-23T06:45:38.973Z,40.59
2019-05-23T06:47:45.423Z,38.34
2019-05-23T06:49:51.908Z,35.09
2019-05-23T06:51:58.875Z,34.08
2019-05-23T06:54:05.986Z,34.31
2019-05-23T06:56:14.699Z,35.54
2019-05-23T06:58:22.311Z,35.85
2019-05-23T07:00:32.071Z,35.63
2019-05-23T07:02:40.529Z,35.14
2019-05-23T07:04:46.959Z,35.90
2019-05-23T07:06:53.999Z,37.32
2019-05-23T07:09:01.271Z,35.79
2019-05-23T07:11:08.110Z,34.36
2019-05-23T07:13:16.450Z,33.53
2019-05-23T07:15:27.069Z,33.02
2019-05-23T07:17:34.369Z,32.37
2019-05-23T07:19:40.897Z,34.21
2019-05-23T07:21:47.562Z,34.78
2019-05-23T07:23:54.193Z,33.69
2019-05-23T07:26:00.631Z,31.82
2019-05-23T07:28:07.789Z,30.41
2019-05-23T07:30:24.685Z,31.01
2019-05-23T07:32:31.192Z,31.92
2019-05-23T07:34:37.546Z,32.10
2019-05-23T07:36:44.129Z,32.67
2019-05-23T07:38:52.088Z,33.92
2019-05-23T07:40:59.729Z,35.18
2019-05-23T07:43:07.714Z,35.32
2019-05-23T07:45:20.891Z,37.37
2019-05-23T07:47:28.608Z,38.35
2019-05-23T07:49:35.430Z,38.43
2019-05-23T07:51:42.157Z,37.66
2019-05-23T07:53:50.789Z,38.13
2019-05-23T07:56:02.249Z,37.78
2019-05-23T07:58:12.917Z,37.22
2019-05-23T08:00:19.897Z,38.04
2019-05-23T08:02:36.629Z,37.70
2019-05-23T08:04:43.429Z,37.40
2019-05-23T08:06:51.857Z,35.84
2019-05-23T08:08:59.712Z,36.61
2019-05-23T08:11:06.361Z,37.06
2019-05-23T08:13:12.943Z,37.02
2019-05-23T08:15:20.965Z,37.38
2019-05-23T08:17:28.617Z,37.05
2019-05-23T08:19:48.488Z,37.41
2019-05-23T08:21:43.217Z,37.77
2019-05-23T08:23:49.647Z,37.74
2019-05-23T08:25:56.464Z,37.27
2019-05-23T08:28:03.140Z,37.73
2019-05-23T08:30:10.411Z,37.64
2019-05-23T08:32:17.499Z,37.24
2019-05-23T08:34:39.963Z,37.70
2019-05-23T08:36:32.458Z,38.31
2019-05-23T08:38:39.173Z,37.05
2019-05-23T08:40:47.475Z,38.13
2019-05-23T08:42:53.974Z,38.51
2019-05-23T08:45:02.125Z,39.82
2019-05-23T08:47:10.140Z,40.40
2019-05-23T08:49:18.843Z,40.06
2019-05-23T08:51:25.304Z,39.88
2019-05-23T08:53:32.156Z,41.78
2019-05-23T08:55:39.520Z,41.73
2019-05-23T08:57:46.943Z,41.85
2019-05-23T08:59:54.123Z,42.53
2019-05-23T09:02:01.212Z,42.02
2019-05-23T09:04:10.899Z,42.52
2019-05-23T09:06:17.214Z,42.92
2019-05-23T09:08:23.513Z,42.89
2019-05-23T09:10:31.330Z,43.17
2019-05-23T09:12:37.807Z,44.14
2019-05-23T09:14:44.273Z,44.18
2019-05-23T09:16:51.534Z,44.38
2019-05-23T09:18:58.003Z,44.92
2019-05-23T09:21:05.107Z,45.34
2019-05-23T09:23:12.485Z,45.03
2019-05-23T09:25:19.892Z,45.03
2019-05-23T09:27:26.426Z,44.55
2019-05-23T09:29:32.934Z,44.92
2019-05-23T09:31:40.148Z,45.02
2019-05-23T09:33:46.714Z,44.88
2019-05-23T09:35:53.459Z,45.43
2019-05-23T09:37:59.960Z,45.66
2019-05-23T09:40:08.199Z,45.04
2019-05-23T09:42:14.785Z,44.43
2019-05-23T09:44:21.292Z,44.01
2019-05-23T09:46:27.731Z,43.48
2019-05-23T09:48:34.238Z,43.26
2019-05-23T09:50:41.709Z,42.26
2019-05-23T09:52:48.307Z,43.31
2019-05-23T09:54:55.153Z,43.50
2019-05-23T09:57:01.718Z,43.43
2019-05-23T09:59:08.646Z,44.02
2019-05-23T10:01:18.279Z,44.34
2019-05-23T10:03:25.211Z,44.37
2019-05-23T10:05:42.610Z,43.05
2019-05-23T10:07:40.414Z,42.60
2019-05-23T10:09:47.326Z,43.27
2019-05-23T10:11:53.941Z,43.75
2019-05-23T10:14:02.163Z,43.80
2019-05-23T10:16:10.091Z,44.57
2019-05-23T10:18:18.880Z,44.70
2019-05-23T10:20:32.274Z,44.69
2019-05-23T10:22:38.901Z,44.06
2019-05-23T10:24:45.446Z,44.13
2019-05-23T10:26:51.996Z,45.61
2019-05-23T10:28:58.516Z,45.37
2019-05-23T10:31:06.946Z,45.35
2019-05-23T10:33:15.039Z,45.75
2019-05-23T10:35:21.918Z,46.48
2019-05-23T10:37:29.313Z,46.92
2019-05-23T10:39:36.829Z,46.95
2019-05-23T10:41:43.765Z,46.57
2019-05-23T10:43:50.462Z,47.48
2019-05-23T10:45:57.008Z,46.42
2019-05-23T10:48:04.797Z,46.99
2019-05-23T10:50:11.598Z,47.26
2019-05-23T10:52:19.412Z,47.12
2019-05-23T10:54:27.309Z,47.33
2019-05-23T10:56:34.183Z,47.23
2019-05-23T10:58:41.074Z,46.56
2019-05-23T11:00:48.033Z,46.84
2019-05-23T11:02:54.652Z,46.69
2019-05-23T11:05:12.229Z,46.73
2019-05-23T11:07:11.813Z,47.17
2019-05-23T11:09:18.810Z,47.88
2019-05-23T11:11:25.973Z,47.66
2019-05-23T11:13:34.107Z,46.52
2019-05-23T11:15:40.853Z,45.81
2019-05-23T11:17:47.399Z,45.17
2019-05-23T11:19:53.835Z,44.19
2019-05-23T11:22:00.371Z,44.44
2019-05-23T11:24:08.406Z,44.36
2019-05-23T11:26:14.912Z,44.26
2019-05-23T11:28:21.379Z,41.85
2019-05-23T11:30:29.472Z,41.80
2019-05-23T11:32:36.138Z,41.18
2019-05-23T11:34:43.126Z,40.33
2019-05-23T11:36:49.724Z,42.25
2019-05-23T11:38:56.961Z,43.11
2019-05-23T11:41:04.127Z,43.73
2019-05-23T11:43:10.700Z,44.56
2019-05-23T11:45:18.748Z,45.05
2019-05-23T11:47:25.560Z,44.86
2019-05-23T11:49:32.074Z,45.92
2019-05-23T11:51:39.087Z,45.44
2019-05-23T11:54:03.836Z,44.92
2019-05-23T11:55:54.668Z,45.57
2019-05-23T11:58:01.449Z,45.28
2019-05-23T12:00:11.473Z,45.28
2019-05-23T12:02:17.942Z,44.24
2019-05-23T12:04:24.954Z,43.82
2019-05-23T12:06:33.192Z,43.41
2019-05-23T12:08:39.568Z,44.24
2019-05-23T12:10:46.054Z,44.66
2019-05-23T12:12:52.432Z,45.46
2019-05-23T12:14:58.880Z,45.55
2019-05-23T12:17:05.454Z,45.14
2019-05-23T12:19:14.163Z,45.58
2019-05-23T12:21:21.049Z,46.72
2019-05-23T12:23:27.471Z,49.41
2019-05-23T12:25:34.766Z,54.25
2019-05-23T12:27:41.133Z,58.88
2019-05-23T12:29:47.682Z,60.72
2019-05-23T12:31:54.482Z,64.03
2019-05-23T12:34:00.949Z,67.06
2019-05-23T12:36:07.871Z,66.56
2019-05-23T12:38:14.253Z,66.79
2019-05-23T12:40:21.437Z,67.45
2019-05-23T12:42:29.692Z,66.98
2019-05-23T12:44:36.158Z,68.39
2019-05-23T12:46:42.629Z,69.22
2019-05-23T12:48:59.967Z,69.58
2019-05-23T12:51:14.206Z,70.94
2019-05-23T12:53:21.978Z,70.38
2019-05-23T12:55:28.494Z,69.85
2019-05-23T12:57:35.378Z,71.51
2019-05-23T12:59:42.095Z,72.44
2019-05-23T13:01:51.643Z,75.15
2019-05-23T13:03:58.667Z,78.75
2019-05-23T13:06:05.904Z,79.16
2019-05-23T13:08:12.940Z,80.94
2019-05-23T13:10:24.121Z,81.24
2019-05-23T13:12:28.744Z,82.30
2019-05-23T13:14:35.434Z,82.96
2019-05-23T13:16:42.052Z,81.74
2019-05-23T13:18:48.685Z,80.33
2019-05-23T13:20:59.361Z,79.67
2019-05-23T13:23:04.838Z,80.19
2019-05-23T13:25:12.639Z,80.30
2019-05-23T13:27:19.645Z,79.22
2019-05-23T13:29:26.296Z,80.72
2019-05-23T13:31:32.864Z,80.87
2019-05-23T13:33:39.683Z,81.24
2019-05-23T13:35:46.249Z,82.52
2019-05-23T13:37:54.250Z,80.14
2019-05-23T13:40:02.208Z,81.73
2019-05-23T13:42:09.957Z,82.96
2019-05-23T13:44:33.065Z,83.55
2019-05-23T13:46:24.744Z,83.04
2019-05-23T13:48:31.312Z,83.04
2019-05-23T13:50:38.063Z,83.28
2019-05-23T13:52:44.710Z,81.77
2019-05-23T13:54:51.548Z,81.44
2019-05-23T13:56:58.586Z,79.88
2019-05-23T13:59:05.544Z,80.84
2019-05-23T14:01:12.436Z,81.30
2019-05-23T14:03:19.195Z,80.44
2019-05-23T14:05:26.200Z,80.79
2019-05-23T14:07:33.386Z,80.19
2019-05-23T14:09:40.635Z,81.80
2019-05-23T14:11:47.114Z,80.42
2019-05-23T14:13:59.791Z,80.20
2019-05-23T14:16:02.857Z,80.49
2019-05-23T14:18:09.622Z,80.12
2019-05-23T14:20:17.392Z,80.32
2019-05-23T14:22:24.805Z,80.87
2019-05-23T14:24:36.780Z,81.70
2019-05-23T14:26:45.046Z,82.85
2019-05-23T14:28:54.533Z,84.13
2019-05-23T14:31:09.268Z,85.08
2019-05-23T14:33:26.368Z,84.72
2019-05-23T14:35:34.821Z,84.07
2019-05-23T14:37:51.942Z,83.43
2019-05-23T14:40:00.652Z,83.11
2019-05-23T14:42:25.290Z,82.70
2019-05-23T14:44:32.128Z,82.40
2019-05-23T14:46:46.527Z,82.28
2019-05-23T14:49:01.720Z,81.76
2019-05-23T14:51:25.865Z,82.46
2019-05-23T14:53:34.151Z,82.39
2019-05-23T14:55:40.700Z,82.09
2019-05-23T14:57:47.503Z,81.81
2019-05-23T14:59:54.513Z,82.36
2019-05-23T15:02:01.333Z,82.56
2019-05-23T15:04:08.237Z,82.94
2019-05-23T15:06:15.081Z,82.54
2019-05-23T15:08:21.733Z,83.21
2019-05-23T15:10:28.696Z,83.20
2019-05-23T15:12:35.349Z,83.85
2019-05-23T15:14:42.375Z,83.71
2019-05-23T15:16:49.074Z,84.16
2019-05-23T15:18:55.925Z,84.16
2019-05-23T15:21:02.643Z,84.56
2019-05-23T15:23:09.421Z,84.76
2019-05-23T15:25:17.357Z,84.63
2019-05-23T15:27:23.878Z,84.64
2019-05-23T15:29:30.418Z,84.78
2019-05-23T15:31:37.435Z,84.90
2019-05-23T15:33:44.025Z,85.50
2019-05-23T15:35:50.728Z,85.05
2019-05-23T15:37:57.243Z,85.15
2019-05-23T15:40:05.687Z,85.69
2019-05-23T15:42:12.310Z,84.90
2019-05-23T15:44:26.857Z,85.13
2019-05-23T15:46:28.480Z,85.43
2019-05-23T15:48:36.051Z,85.31
2019-05-23T15:50:44.237Z,85.39
2019-05-23T15:53:01.742Z,85.56
2019-05-23T15:55:22.921Z,85.68
2019-05-23T15:57:41.676Z,85.83
2019-05-23T15:59:59.002Z,85.72
2019-05-23T16:02:12.931Z,85.77
2019-05-23T16:04:21.071Z,86.03
2019-05-23T16:06:29.733Z,86.00
2019-05-23T16:08:36.761Z,86.12
2019-05-23T16:10:43.269Z,86.23
2019-05-23T16:12:49.977Z,86.56
2019-05-23T16:14:57.965Z,86.48
2019-05-23T16:17:06.343Z,86.82
2019-05-23T16:19:13.711Z,86.61
2019-05-23T16:21:21.905Z,86.52
2019-05-23T16:23:28.529Z,87.08
2019-05-23T16:25:35.271Z,86.93
2019-05-23T16:27:44.241Z,86.93
2019-05-23T16:29:49.970Z,87.07
2019-05-23T16:31:57.355Z,87.58
2019-05-23T16:34:04.072Z,87.60
2019-05-23T16:36:10.807Z,87.60
2019-05-23T16:38:17.241Z,87.62
2019-05-23T16:40:25.146Z,87.60
2019-05-23T16:42:33.056Z,87.94
2019-05-23T16:44:40.801Z,87.68
2019-05-23T16:46:47.409Z,87.75
2019-05-23T16:48:54.233Z,87.74
2019-05-23T16:51:00.904Z,87.94
2019-05-23T16:53:07.797Z,88.10
2019-05-23T16:55:19.330Z,88.11
2019-05-23T16:57:26.724Z,88.87
2019-05-23T16:59:34.878Z,88.52
2019-05-23T17:02:02.751Z,88.66
2019-05-23T17:04:12.167Z,88.20
2019-05-23T17:06:20.359Z,87.92
2019-05-23T17:08:35.855Z,87.50
2019-05-23T17:10:43.898Z,87.10
2019-05-23T17:13:04.114Z,85.74
2019-05-23T17:15:19.859Z,85.81
2019-05-23T17:17:57.400Z,85.86
2019-05-23T17:20:19.020Z,85.16
2019-05-23T17:22:31.759Z,85.44
2019-05-23T17:24:46.092Z,85.42
2019-05-23T17:27:10.940Z,85.48
2019-05-23T17:29:19.346Z,84.94
2019-05-23T17:31:31.513Z,85.41
2019-05-23T17:33:38.499Z,85.11
2019-05-23T17:35:46.199Z,85.50
2019-05-23T17:37:52.929Z,85.58
2019-05-23T17:40:00.015Z,84.97
2019-05-23T17:42:06.650Z,85.01
2019-05-23T17:44:13.240Z,85.41
2019-05-23T17:46:19.794Z,85.44
2019-05-23T17:48:26.307Z,85.94
2019-05-23T17:50:34.879Z,85.75
2019-05-23T17:52:41.072Z,85.69
2019-05-23T17:54:47.635Z,86.11
2019-05-23T17:56:55.879Z,85.98
2019-05-23T17:59:02.280Z,86.17
2019-05-23T18:01:09.310Z,86.24
2019-05-23T18:03:16.411Z,86.64
2019-05-23T18:05:25.205Z,86.88
2019-05-23T18:07:32.387Z,86.79
2019-05-23T18:09:39.377Z,86.90
2019-05-23T18:11:46.044Z,87.17
2019-05-23T18:13:52.810Z,87.18
2019-05-23T18:15:59.464Z,87.39
2019-05-23T18:18:07.486Z,87.69
2019-05-23T18:20:16.488Z,87.54
2019-05-23T18:22:22.480Z,87.65
2019-05-23T18:24:30.632Z,87.76
2019-05-23T18:26:37.252Z,87.47
2019-05-23T18:28:44.616Z,87.70
2019-05-23T18:30:53.616Z,87.85
2019-05-23T18:33:00.917Z,87.97
2019-05-23T18:35:10.619Z,88.16
2019-05-23T18:37:17.841Z,88.09
2019-05-23T18:39:24.801Z,88.12
2019-05-23T18:41:32.823Z,88.32
2019-05-23T18:43:40.275Z,88.29
2019-05-23T18:45:48.791Z,88.52
2019-05-23T18:47:55.335Z,88.66
2019-05-23T18:50:02.477Z,88.81
2019-05-23T18:52:11.920Z,88.78
2019-05-23T18:54:18.489Z,88.94
2019-05-23T18:56:25.856Z,89.18
2019-05-23T18:58:32.297Z,89.53
2019-05-23T19:00:57.014Z,89.67
2019-05-23T19:03:05.659Z,89.76
2019-05-23T19:05:14.478Z,90.08
2019-05-23T19:07:21.725Z,90.25
2019-05-23T19:09:30.708Z,90.56
2019-05-23T19:11:36.578Z,91.20
2019-05-23T19:13:43.420Z,91.20
2019-05-23T19:15:50.545Z,91.50
2019-05-23T19:17:57.199Z,91.68
2019-05-23T19:20:05.242Z,91.73
2019-05-23T19:22:13.561Z,91.68
2019-05-23T19:24:20.187Z,91.82
2019-05-23T19:26:27.151Z,92.14
2019-05-23T19:28:33.846Z,92.56
2019-05-23T19:30:40.603Z,92.81
2019-05-23T19:32:57.376Z,92.86
2019-05-23T19:35:00.984Z,92.95
2019-05-23T19:37:08.752Z,92.96
2019-05-23T19:39:15.468Z,93.10
2019-05-23T19:41:36.259Z,93.43
2019-05-23T19:43:30.269Z,93.51
2019-05-23T19:45:36.883Z,93.50
2019-05-23T19:47:43.399Z,93.52
2019-05-23T19:49:50.046Z,93.62
2019-05-23T19:51:57.993Z,93.69
2019-05-23T19:54:05.908Z,93.84
2019-05-23T19:56:12.200Z,94.03
2019-05-23T19:58:21.940Z,94.05
2019-05-23T20:00:28.843Z,94.16
2019-05-23T20:02:39.967Z,94.21
2019-05-23T20:04:48.580Z,94.29
2019-05-23T20:06:55.538Z,94.39
2019-05-23T20:09:03.992Z,94.46
2019-05-23T20:11:11.404Z,94.50
2019-05-23T20:13:18.977Z,94.52
2019-05-23T20:15:25.773Z,94.50
2019-05-23T20:17:32.358Z,94.36
2019-05-23T20:19:40.051Z,94.25
2019-05-23T20:21:46.644Z,94.04
2019-05-23T20:23:53.409Z,93.77
2019-05-23T20:25:59.862Z,93.69
2019-05-23T20:28:07.631Z,93.44
2019-05-23T20:30:38.925Z,93.11
2019-05-23T20:32:45.430Z,92.96
2019-05-23T20:34:52.007Z,92.90
2019-05-23T20:36:58.679Z,92.83
2019-05-23T20:39:08.220Z,92.61
2019-05-23T20:41:14.954Z,92.38
2019-05-23T20:43:21.749Z,92.15
2019-05-23T20:45:28.379Z,92.00
2019-05-23T20:47:36.728Z,91.91
2019-05-23T20:49:44.324Z,91.73
2019-05-23T20:51:53.965Z,91.77
2019-05-23T20:54:00.409Z,91.72
2019-05-23T20:56:07.451Z,91.49
2019-05-23T20:58:14.363Z,91.30
2019-05-23T21:00:33.124Z,91.16
2019-05-23T21:02:39.765Z,90.96
2019-05-23T21:04:46.332Z,91.04
2019-05-23T21:06:52.933Z,91.07
2019-05-23T21:08:59.349Z,90.64
2019-05-23T21:11:06.008Z,89.97
2019-05-23T21:13:13.124Z,89.47
2019-05-23T21:15:19.657Z,88.95
2019-05-23T21:17:26.190Z,88.62
2019-05-23T21:19:32.941Z,87.58
2019-05-23T21:21:39.632Z,86.96
2019-05-23T21:23:46.725Z,86.79
2019-05-23T21:25:54.984Z,86.47
2019-05-23T21:28:01.581Z,86.29
2019-05-23T21:30:08.181Z,86.31
2019-05-23T21:32:14.658Z,86.13
2019-05-23T21:34:22.269Z,85.95
2019-05-23T21:36:28.928Z,86.02
2019-05-23T21:38:35.512Z,86.03
2019-05-23T21:40:44.994Z,85.98
2019-05-23T21:42:51.507Z,85.98
2019-05-23T21:44:58.019Z,85.86
2019-05-23T21:47:04.652Z,85.88
2019-05-23T21:49:11.272Z,86.19
2019-05-23T21:51:17.832Z,85.72
2019-05-23T21:53:24.509Z,86.24
2019-05-23T21:55:41.977Z,85.65
2019-05-23T21:57:48.506Z,85.87
2019-05-23T21:59:55.107Z,86.13
2019-05-23T22:02:09.558Z,86.17
2019-05-23T22:04:20.643Z,86.03
2019-05-23T22:06:28.934Z,85.96
2019-05-23T22:08:35.754Z,85.81
2019-05-23T22:10:42.177Z,85.82
2019-05-23T22:13:03.412Z,85.62
2019-05-23T22:14:56.957Z,85.80
2019-05-23T22:17:03.462Z,85.79
2019-05-23T22:19:11.735Z,85.75
2019-05-23T22:21:18.314Z,85.69
2019-05-23T22:23:24.931Z,85.86
2019-05-23T22:25:35.300Z,85.56
2019-05-23T22:27:41.758Z,85.70
2019-05-23T22:29:48.283Z,85.55
2019-05-23T22:31:56.486Z,85.41
2019-05-23T22:34:05.819Z,85.53
2019-05-23T22:36:13.956Z,85.60
2019-05-23T22:38:20.546Z,85.62
2019-05-23T22:40:27.154Z,85.89
2019-05-23T22:42:34.029Z,85.52
2019-05-23T22:44:40.465Z,85.51
2019-05-23T22:46:47.550Z,84.53
2019-05-23T22:48:54.142Z,84.87
2019-05-23T22:51:00.561Z,84.84
2019-05-23T22:53:07.120Z,84.38
2019-05-23T22:55:14.002Z,84.62
2019-05-23T22:57:20.560Z,84.89
2019-05-23T22:59:27.179Z,85.09
2019-05-23T23:01:35.076Z,85.34
2019-05-23T23:03:41.539Z,85.26
2019-05-23T23:05:48.048Z,85.10
2019-05-23T23:07:54.625Z,85.13
2019-05-23T23:10:01.110Z,85.42
2019-05-23T23:12:07.687Z,84.91
2019-05-23T23:14:14.324Z,85.04
2019-05-23T23:16:20.989Z,85.19
2019-05-23T23:18:27.506Z,84.83
2019-05-23T23:20:34.175Z,84.78
2019-05-23T23:22:40.560Z,84.87
2019-05-23T23:24:47.238Z,85.19
2019-05-23T23:26:53.701Z,85.61
2019-05-23T23:29:00.313Z,85.52
2019-05-23T23:31:06.775Z,85.71
2019-05-23T23:33:13.544Z,85.37
2019-05-23T23:35:20.127Z,85.49
2019-05-23T23:37:26.676Z,85.93
2019-05-23T23:39:33.166Z,85.56
2019-05-23T23:41:39.614Z,85.53
2019-05-23T23:43:58.611Z,85.68
2019-05-23T23:46:12.724Z,85.73
2019-05-23T23:48:37.104Z,86.01
2019-05-23T23:51:01.703Z,86.13
2019-05-23T23:53:26.233Z,86.22
2019-05-23T23:55:50.817Z,85.95
2019-05-23T23:57:59.344Z,85.87
